Time;durP1;ratioP1;P1;durP2;ratioP2;P2;SDS_P1;SDS_P2;PMS_P1;PMS_P2;Temp;Humidity;BMP_temperature;BMP_pressure;BME280_temperature;BME280_humidity;BME280_pressure;Samples;Min_cycle;Max_cycle;Signal;HPM_P1;HPM_P2
2021/03/01 00:00:11;;;;;;;23.73;16.00;;;;;;;2.86;73.03;101557.31;1749792;82;21038;-73
2021/03/01 00:02:40;;;;;;;23.77;17.48;;;;;;;2.85;72.99;101559.95;1749816;82;20935;-72
2021/03/01 00:05:10;;;;;;;23.83;16.90;;;;;;;2.82;73.00;101559.52;1749860;82;21002;-72
2021/03/01 00:07:39;;;;;;;22.13;16.20;;;;;;;2.80;73.04;101557.42;1749818;82;22600;-72
2021/03/01 00:10:07;;;;;;;20.30;14.68;;;;;;;2.78;73.10;101558.29;1749883;82;21025;-70
2021/03/01 00:12:36;;;;;;;23.15;15.63;;;;;;;2.78;73.05;101555.70;1749803;82;21006;-70
2021/03/01 00:15:05;;;;;;;27.37;17.50;;;;;;;2.79;72.95;101550.51;1749779;82;20895;-73
2021/03/01 00:17:33;;;;;;;20.00;13.88;;;;;;;2.80;72.83;101550.06;1749863;82;20911;-70
2021/03/01 00:20:06;;;;;;;18.62;14.45;;;;;;;2.78;72.67;101553.99;1749850;82;21391;-70
2021/03/01 00:22:34;;;;;;;19.70;14.43;;;;;;;2.75;72.71;101551.86;1749799;82;20967;-70
2021/03/01 00:25:05;;;;;;;20.17;14.85;;;;;;;2.74;72.62;101551.46;1749785;82;20967;-70
2021/03/01 00:27:33;;;;;;;18.87;15.35;;;;;;;2.73;72.72;101547.14;1751659;81;20935;-71
2021/03/01 00:30:01;;;;;;;19.95;14.95;;;;;;;2.70;72.77;101552.77;1752542;81;20899;-70
2021/03/01 00:32:29;;;;;;;25.48;17.98;;;;;;;2.70;72.75;101549.34;1752473;81;21218;-71
2021/03/01 00:34:57;;;;;;;28.62;19.10;;;;;;;2.71;72.75;101549.73;1752370;81;21022;-71
2021/03/01 00:37:25;;;;;;;27.35;19.00;;;;;;;2.73;72.75;101558.35;1752468;81;20958;-72
2021/03/01 00:39:53;;;;;;;27.27;19.50;;;;;;;2.72;72.72;101556.65;1752573;81;21516;-71
2021/03/01 00:42:21;;;;;;;33.38;20.45;;;;;;;2.69;72.79;101560.55;1752459;81;20951;-72
2021/03/01 00:44:49;;;;;;;23.67;17.37;;;;;;;2.70;72.57;101559.25;1752462;81;21383;-71
2021/03/01 00:47:17;;;;;;;26.75;18.75;;;;;;;2.66;72.60;101555.42;1752450;81;21448;-71
2021/03/01 00:49:46;;;;;;;25.70;18.62;;;;;;;2.65;72.83;101562.78;1752424;81;21607;-70
2021/03/01 00:52:14;;;;;;;30.55;19.27;;;;;;;2.65;72.92;101560.20;1752412;81;20950;-71
2021/03/01 00:54:42;;;;;;;24.05;19.00;;;;;;;2.68;72.89;101566.63;1752559;81;20947;-71
2021/03/01 00:57:11;;;;;;;24.15;17.35;;;;;;;2.69;72.84;101564.02;1752445;81;21515;-71
2021/03/01 00:59:39;;;;;;;24.85;17.57;;;;;;;2.67;73.01;101566.22;1752480;81;20994;-71
2021/03/01 01:02:08;;;;;;;26.73;18.85;;;;;;;2.57;73.24;101569.33;1752467;81;21010;-71
2021/03/01 01:04:38;;;;;;;26.65;17.25;;;;;;;2.52;73.27;101571.58;1752389;81;21073;-72
2021/03/01 01:07:07;;;;;;;30.60;17.57;;;;;;;2.52;73.27;101567.69;1752405;81;21003;-70
2021/03/01 01:09:34;;;;;;;27.32;17.52;;;;;;;2.52;73.36;101568.54;1752495;81;22392;-72
2021/03/01 01:12:03;;;;;;;35.38;21.70;;;;;;;2.54;73.36;101569.37;1752406;81;20947;-72
2021/03/01 01:14:32;;;;;;;33.40;20.02;;;;;;;2.60;73.38;101574.50;1752422;81;20943;-72
2021/03/01 01:17:00;;;;;;;38.65;20.30;;;;;;;2.64;73.17;101567.53;1752408;81;20959;-72
2021/03/01 01:19:28;;;;;;;27.77;18.02;;;;;;;2.67;72.85;101576.13;1752508;81;20923;-72
2021/03/01 01:21:56;;;;;;;22.50;17.15;;;;;;;2.67;72.61;101575.28;1752424;81;21822;-72
2021/03/01 01:24:24;;;;;;;27.85;17.67;;;;;;;2.64;72.46;101574.00;1752443;81;20958;-73
2021/03/01 01:26:52;;;;;;;25.92;15.85;;;;;;;2.65;72.40;101575.73;1751373;81;20951;-72
2021/03/01 01:29:20;;;;;;;24.05;17.65;;;;;;;2.64;72.51;101577.44;1749805;82;21381;-72
2021/03/01 01:31:48;;;;;;;25.37;15.08;;;;;;;2.62;72.65;101574.05;1749784;82;21014;-72
2021/03/01 01:34:16;;;;;;;26.23;16.57;;;;;;;2.66;72.78;101576.14;1749744;82;21385;-71
2021/03/01 01:36:44;;;;;;;22.77;17.55;;;;;;;2.70;72.76;101575.23;1749675;82;20974;-72
2021/03/01 01:39:12;;;;;;;26.77;17.27;;;;;;;2.74;72.58;101581.25;1749762;82;21073;-73
2021/03/01 01:41:40;;;;;;;26.50;17.77;;;;;;;2.75;72.52;101575.17;1749718;82;20966;-72
2021/03/01 01:44:07;;;;;;;26.45;17.92;;;;;;;2.73;72.55;101585.55;1749796;82;21004;-71
2021/03/01 01:46:36;;;;;;;21.23;14.70;;;;;;;2.73;72.50;101582.11;1749739;82;21388;-71
2021/03/01 01:49:04;;;;;;;18.42;14.38;;;;;;;2.73;72.42;101581.66;1749717;82;20947;-72
2021/03/01 01:51:31;;;;;;;22.27;15.90;;;;;;;2.69;72.35;101587.33;1749819;82;21508;-72
2021/03/01 01:54:00;;;;;;;27.50;17.10;;;;;;;2.68;72.42;101589.48;1749752;82;21007;-72
2021/03/01 01:56:27;;;;;;;26.87;17.85;;;;;;;2.67;72.45;101590.38;1749826;82;21479;-72
2021/03/01 01:58:55;;;;;;;23.10;15.35;;;;;;;2.67;72.19;101589.08;1749758;82;21624;-72
2021/03/01 02:01:23;;;;;;;20.65;14.47;;;;;;;2.66;71.96;101589.94;1722794;82;21634;-72
2021/03/01 02:04:05;;;;;;;25.20;15.98;;;;;;;2.63;71.81;101591.28;1749829;82;21452;-73
2021/03/01 02:07:06;;;;;;;22.52;15.00;;;;;;;2.61;71.74;101598.20;1749644;82;20927;-72
2021/03/01 02:10:27;;;;;;;24.10;16.60;;;;;;;2.61;71.72;101602.53;1749155;82;21618;-71
2021/03/01 02:13:39;;;;;;;23.20;16.52;;;;;;;2.59;72.12;101608.16;1749689;82;21443;-71
2021/03/01 02:16:16;;;;;;;20.68;15.00;;;;;;;2.56;72.54;101612.95;1651566;86;21052;-72
2021/03/01 02:18:45;;;;;;;22.35;16.00;;;;;;;2.58;72.61;101611.20;1651904;86;21138;-72
2021/03/01 02:21:14;;;;;;;23.92;16.82;;;;;;;2.61;72.67;101616.33;1651951;86;21090;-72
2021/03/01 02:23:43;;;;;;;26.33;17.25;;;;;;;2.63;72.49;101615.88;1651967;86;21593;-72
2021/03/01 02:26:22;;;;;;;26.12;16.77;;;;;;;2.63;72.23;101620.21;1651918;86;21758;-71
2021/03/01 02:28:51;;;;;;;29.00;17.02;;;;;;;2.62;72.26;101616.77;1651941;86;21023;-73
2021/03/01 02:31:20;;;;;;;30.23;18.80;;;;;;;2.61;72.02;101616.33;1651903;86;20979;-72
2021/03/01 02:33:51;;;;;;;33.48;20.27;;;;;;;2.60;71.96;101619.81;1651832;86;21019;-71
2021/03/01 02:36:53;;;;;;;31.05;18.77;;;;;;;2.58;71.95;101627.14;1652101;86;21413;-71
2021/03/01 02:39:24;;;;;;;28.12;18.82;;;;;;;2.58;71.88;101629.73;1651983;86;21392;-72
2021/03/01 02:41:55;;;;;;;31.40;19.32;;;;;;;2.60;71.88;101634.47;1651869;86;21019;-71
2021/03/01 02:44:37;;;;;;;32.17;21.75;;;;;;;2.65;71.79;101636.59;1775396;79;22860;-72
2021/03/01 02:47:05;;;;;;;39.78;22.93;;;;;;;2.59;71.80;101640.53;1749635;82;20986;-71
2021/03/01 02:49:34;;;;;;;33.95;19.37;;;;;;;2.61;71.70;101640.93;1749615;82;21115;-72
2021/03/01 02:52:01;;;;;;;28.75;20.40;;;;;;;2.62;71.74;101643.08;1749606;82;20962;-72
2021/03/01 02:54:29;;;;;;;27.48;19.17;;;;;;;2.60;71.94;101637.05;1749718;82;20931;-71
2021/03/01 02:56:57;;;;;;;30.97;19.92;;;;;;;2.59;72.03;101643.97;1749637;80;21342;-72
2021/03/01 02:59:25;;;;;;;27.75;18.82;;;;;;;2.61;72.06;101641.38;1720476;82;20928;-72
2021/03/01 03:01:53;;;;;;;29.15;18.90;;;;;;;2.62;72.02;101645.66;1720738;82;21866;-72
2021/03/01 03:04:22;;;;;;;31.30;18.98;;;;;;;2.61;71.90;101651.29;1749549;82;20939;-72
2021/03/01 03:06:50;;;;;;;27.32;18.57;;;;;;;2.56;71.94;101655.67;1720495;82;20943;-71
2021/03/01 03:09:21;;;;;;;29.10;18.32;;;;;;;2.56;71.87;101661.29;1749663;82;20896;-72
2021/03/01 03:11:49;;;;;;;29.07;16.55;;;;;;;2.56;71.78;101656.11;1749659;82;20935;-71
2021/03/01 03:14:20;;;;;;;23.27;16.35;;;;;;;2.53;71.88;101660.86;1749619;82;21365;-72
2021/03/01 03:16:51;;;;;;;27.42;17.98;;;;;;;2.55;72.12;101664.29;1749588;82;20963;-72
2021/03/01 03:19:19;;;;;;;27.48;17.67;;;;;;;2.59;72.00;101663.39;1721208;82;21023;-70
2021/03/01 03:21:47;;;;;;;28.65;19.10;;;;;;;2.65;71.99;101671.55;1749573;80;20987;-71
2021/03/01 03:24:16;;;;;;;23.80;17.73;;;;;;;2.65;71.94;101670.25;1749665;82;21417;-69
2021/03/01 03:26:44;;;;;;;22.75;15.48;;;;;;;2.64;71.89;101672.41;1749613;82;21807;-68
2021/03/01 03:29:12;;;;;;;33.85;20.52;;;;;;;2.62;72.00;101672.85;1749624;81;21083;-69
2021/03/01 03:31:40;;;;;;;25.20;17.35;;;;;;;2.62;71.91;101675.45;1749566;80;20935;-69
2021/03/01 03:34:09;;;;;;;25.25;17.87;;;;;;;2.61;71.85;101674.59;1749564;82;20927;-68
2021/03/01 03:36:40;;;;;;;22.13;16.05;;;;;;;2.61;72.00;101675.04;1749678;82;20987;-68
2021/03/01 03:39:14;;;;;;;22.27;16.62;;;;;;;2.61;72.21;101676.33;1749626;81;21393;-69
2021/03/01 03:41:43;;;;;;;26.30;18.35;;;;;;;2.62;72.26;101678.03;1749618;82;20951;-69
2021/03/01 03:44:11;;;;;;;22.93;16.82;;;;;;;2.62;72.28;101681.92;1739978;81;21298;-69
2021/03/01 03:46:39;;;;;;;24.90;15.80;;;;;;;2.62;72.11;101682.80;1736515;82;21039;-68
2021/03/01 03:49:10;;;;;;;23.67;16.73;;;;;;;2.59;71.87;101680.22;1736422;82;20959;-68
2021/03/01 03:51:38;;;;;;;21.90;14.28;;;;;;;2.59;71.78;101685.40;1736454;82;21367;-68
2021/03/01 03:54:17;;;;;;;19.10;14.18;;;;;;;2.59;71.78;101689.73;1736247;82;20967;-68
2021/03/01 03:56:49;;;;;;;16.20;12.82;;;;;;;2.56;71.88;101689.77;1736274;82;20987;-68
2021/03/01 03:59:18;;;;;;;19.67;12.82;;;;;;;2.54;71.83;101689.77;1736020;81;21050;-67
2021/03/01 04:01:47;;;;;;;20.17;13.80;;;;;;;2.53;71.83;101698.39;1735909;81;20940;-69
2021/03/01 04:04:16;;;;;;;20.60;13.45;;;;;;;2.54;71.70;101696.69;1692299;82;21176;-69
2021/03/01 04:06:45;;;;;;;19.42;14.68;;;;;;;2.53;71.67;101700.13;1692115;82;21508;-69
2021/03/01 04:09:14;;;;;;;16.97;12.85;;;;;;;2.51;71.62;101705.77;1692035;82;21038;-69
2021/03/01 04:11:44;;;;;;;14.98;12.68;;;;;;;2.51;71.62;101712.23;1652792;85;20915;-69
2021/03/01 04:14:15;;;;;;;15.48;11.50;;;;;;;2.52;71.71;101712.67;1695830;84;20968;-70
2021/03/01 04:16:45;;;;;;;18.87;12.43;;;;;;;2.49;71.83;101710.98;1667288;84;21390;-69
2021/03/01 04:19:15;;;;;;;17.77;12.45;;;;;;;2.47;71.87;101711.42;1695921;84;21093;-72
2021/03/01 04:21:42;;;;;;;17.67;13.03;;;;;;;2.46;71.85;101715.72;1695876;84;21435;-69
2021/03/01 04:24:11;;;;;;;18.42;12.35;;;;;;;2.48;71.76;101717.01;1695783;84;21362;-70
2021/03/01 04:26:42;;;;;;;18.07;12.23;;;;;;;2.48;71.66;101718.30;1695908;83;20973;-70
2021/03/01 04:29:10;;;;;;;19.85;12.68;;;;;;;2.47;71.63;101721.78;1695999;83;22286;-71
2021/03/01 04:31:39;;;;;;;16.57;12.28;;;;;;;2.46;71.55;101724.78;1712312;81;21537;-68
2021/03/01 04:34:08;;;;;;;19.95;13.72;;;;;;;2.46;71.67;101732.55;1735992;82;20955;-69
2021/03/01 04:36:36;;;;;;;20.57;12.78;;;;;;;2.44;71.84;101735.58;1735836;81;20999;-69
2021/03/01 04:39:05;;;;;;;15.08;12.60;;;;;;;2.47;71.82;101738.61;1735966;81;21019;-70
2021/03/01 04:41:36;;;;;;;15.08;11.25;;;;;;;2.48;71.77;101739.86;1735931;82;21259;-70
2021/03/01 04:44:04;;;;;;;14.58;10.05;;;;;;;2.47;71.46;101748.52;1735758;81;21051;-71
2021/03/01 04:46:32;;;;;;;13.15;9.85;;;;;;;2.41;71.50;101747.71;1715319;82;20944;-69
2021/03/01 04:49:01;;;;;;;22.07;14.53;;;;;;;2.36;71.49;101750.78;1735795;82;20943;-69
2021/03/01 04:51:30;;;;;;;14.00;10.00;;;;;;;2.32;71.73;101758.14;1735935;82;21370;-69
2021/03/01 04:54:01;;;;;;;12.73;9.18;;;;;;;2.32;71.83;101759.44;1735920;81;21819;-71
2021/03/01 04:56:29;;;;;;;12.93;9.50;;;;;;;2.27;71.90;101764.64;1735868;82;20967;-71
2021/03/01 04:58:59;;;;;;;14.73;10.03;;;;;;;2.21;72.04;101770.70;1735837;81;20939;-70
2021/03/01 05:01:27;;;;;;;14.33;10.72;;;;;;;2.23;72.25;101775.88;1735899;82;20944;-70
2021/03/01 05:03:55;;;;;;;13.93;10.68;;;;;;;2.26;72.10;101775.41;1715226;82;21007;-70
2021/03/01 05:06:23;;;;;;;12.85;10.25;;;;;;;2.26;72.17;101783.61;1735722;82;21810;-72
2021/03/01 05:08:51;;;;;;;16.07;12.03;;;;;;;2.25;72.35;101782.77;1735792;82;21378;-70
2021/03/01 05:11:32;;;;;;;13.20;9.80;;;;;;;2.30;72.26;101789.64;1735806;81;21370;-70
2021/03/01 05:14:00;;;;;;;15.13;9.95;;;;;;;2.32;72.30;101793.93;1735867;82;21031;-70
2021/03/01 05:16:29;;;;;;;13.50;10.85;;;;;;;2.31;72.39;101788.31;1735904;81;20931;-69
2021/03/01 05:18:57;;;;;;;16.10;10.82;;;;;;;2.32;72.41;101791.34;1735789;82;22262;-70
2021/03/01 05:21:27;;;;;;;15.23;12.15;;;;;;;2.35;72.39;101793.90;1735828;82;21512;-71
2021/03/01 05:23:55;;;;;;;16.00;11.93;;;;;;;2.40;72.35;101797.34;1735798;82;20995;-70
2021/03/01 05:26:23;;;;;;;16.87;12.90;;;;;;;2.42;72.13;101798.59;1735747;82;21050;-70
2021/03/01 05:28:51;;;;;;;15.30;11.45;;;;;;;2.43;71.91;101802.92;1735866;82;21472;-69
2021/03/01 05:31:19;;;;;;;18.80;12.82;;;;;;;2.45;71.84;101808.51;1735803;82;21271;-74
2021/03/01 05:33:48;;;;;;;22.25;12.70;;;;;;;2.45;71.88;101814.98;1735876;82;20959;-75
2021/03/01 05:36:16;;;;;;;22.02;14.75;;;;;;;2.45;72.19;101818.02;1735781;82;21035;-70
2021/03/01 05:38:44;;;;;;;19.50;13.78;;;;;;;2.47;72.30;101823.59;1735720;81;21019;-69
2021/03/01 05:41:12;;;;;;;17.07;13.70;;;;;;;2.44;72.23;101832.66;1735736;82;20943;-70
2021/03/01 05:43:39;;;;;;;21.05;12.23;;;;;;;2.39;72.11;101832.28;1737663;81;21208;-72
2021/03/01 05:46:07;;;;;;;18.50;12.28;;;;;;;2.33;72.28;101837.49;1691638;82;21042;-71
2021/03/01 05:48:35;;;;;;;18.82;11.68;;;;;;;2.26;72.16;101840.11;1743854;81;21010;-71
2021/03/01 05:51:04;;;;;;;13.83;9.83;;;;;;;2.25;72.38;101847.91;1743877;82;21471;-71
2021/03/01 05:53:38;;;;;;;11.50;9.68;;;;;;;2.22;72.43;101849.20;1744009;81;21325;-71
2021/03/01 05:56:06;;;;;;;;;;;;;;;2.19;72.70;101850.52;1746526;82;21197;-72
2021/03/01 05:58:35;;;;;;;13.22;8.93;;;;;;;2.21;72.80;101854.81;1743851;82;20219;-72
2021/03/01 06:01:04;;;;;;;11.90;9.93;;;;;;;2.25;72.78;101852.64;1743841;82;21062;-70
2021/03/01 06:03:34;;;;;;;13.20;10.85;;;;;;;2.31;72.58;101859.94;1743852;82;20963;-74
2021/03/01 06:06:04;;;;;;;14.28;11.68;;;;;;;2.33;72.54;101862.08;1743984;81;21034;-79
2021/03/01 06:08:32;;;;;;;16.32;11.08;;;;;;;2.36;72.52;101861.64;1743773;81;21363;-75
2021/03/01 06:11:07;;;;;;;18.92;12.88;;;;;;;2.39;72.45;101868.52;1743824;82;20963;-75
2021/03/01 06:13:35;;;;;;;13.68;11.33;;;;;;;2.41;72.33;101871.52;1743905;82;20967;-75
2021/03/01 06:16:05;;;;;;;20.48;12.63;;;;;;;2.41;72.25;101876.70;1743669;82;21057;-73
2021/03/01 06:18:35;;;;;;;23.65;13.78;;;;;;;2.42;72.53;101878.84;1743949;81;21464;-77
2021/03/01 06:21:14;;;;;;;22.22;15.00;;;;;;;2.42;72.58;101874.55;1743865;81;21669;-73
2021/03/01 06:23:44;;;;;;;25.15;14.98;;;;;;;2.44;72.50;101881.84;1743876;82;21345;-72
2021/03/01 06:26:30;;;;;;;31.17;16.23;;;;;;;2.47;72.53;101886.17;1743873;82;20900;-73
2021/03/01 06:29:06;;;;;;;29.52;15.95;;;;;;;2.47;72.45;101885.73;1743839;82;21019;-74
2021/03/01 06:31:46;;;;;;;27.73;16.50;;;;;;;2.49;72.28;101896.95;1743888;82;21085;-76
2021/03/01 06:34:32;;;;;;;18.67;11.65;;;;;;;2.49;72.26;101895.65;1743992;82;21201;-73
2021/03/01 06:37:10;;;;;;;20.20;12.82;;;;;;;2.51;72.35;101895.62;1743849;82;21175;-75
2021/03/01 06:39:42;;;;;;;15.38;11.28;;;;;;;2.50;72.36;101901.68;1743878;82;20987;-73
2021/03/01 06:43:15;;;;;;;16.30;12.10;;;;;;;2.58;72.25;101908.98;1816054;79;22659;-75
2021/03/01 06:45:43;;;;;;;25.25;14.28;;;;;;;2.58;72.15;101914.56;1789127;80;20950;-75
2021/03/01 06:48:13;;;;;;;19.87;13.83;;;;;;;2.59;72.12;101912.42;1789110;80;21804;-75
2021/03/01 06:50:46;;;;;;;26.12;14.60;;;;;;;2.59;72.03;101916.30;1789013;79;21515;-75
2021/03/01 06:53:16;;;;;;;25.80;15.15;;;;;;;2.58;72.07;101923.22;1789142;80;20890;-76
2021/03/01 06:56:06;;;;;;;28.95;18.37;;;;;;;2.58;71.97;101921.92;1788980;79;21057;-75
2021/03/01 06:58:40;;;;;;;28.42;17.02;;;;;;;2.54;72.05;101922.80;1789161;80;20926;-76
2021/03/01 07:01:20;;;;;;;21.37;16.07;;;;;;;2.50;72.17;101932.75;1789077;80;21456;-75
2021/03/01 07:03:50;;;;;;;27.30;17.10;;;;;;;2.46;72.32;101930.59;1788773;79;21029;-78
2021/03/01 07:06:19;;;;;;;21.07;14.33;;;;;;;2.51;72.30;101937.48;1789047;79;20970;-75
2021/03/01 07:08:54;;;;;;;26.95;16.55;;;;;;;2.54;72.29;101935.75;1788989;80;20962;-75
2021/03/01 07:11:36;;;;;;;23.02;14.47;;;;;;;2.55;72.27;101941.34;1789181;79;20938;-76
2021/03/01 07:14:10;;;;;;;21.68;13.83;;;;;;;2.55;72.20;101939.20;1789144;80;21200;-76
2021/03/01 07:16:56;;;;;;;17.35;12.55;;;;;;;2.53;72.28;101945.67;1789009;80;20989;-75
2021/03/01 07:19:32;;;;;;;18.67;12.43;;;;;;;2.53;72.16;101934.45;1789140;79;20938;-76
2021/03/01 07:22:05;;;;;;;17.87;11.63;;;;;;;2.60;72.10;101944.79;1789023;79;20934;-75
2021/03/01 07:24:33;;;;;;;13.83;10.00;;;;;;;2.57;72.26;101937.02;1789129;80;20938;-75
2021/03/01 07:27:04;;;;;;;12.40;9.53;;;;;;;2.56;71.95;101925.40;1789046;80;21263;-74
2021/03/01 07:29:35;;;;;;;23.62;15.20;;;;;;;2.53;71.83;101914.59;1788983;80;20942;-73
2021/03/01 07:32:09;;;;;;;31.42;17.32;;;;;;;2.50;71.70;101918.51;1789052;80;20950;-75
2021/03/01 07:34:37;;;;;;;26.77;16.60;;;;;;;2.45;71.79;101918.53;1789102;79;20985;-75
2021/03/01 07:37:06;;;;;;;30.60;17.82;;;;;;;2.42;71.71;101915.09;1789103;80;20938;-76
2021/03/01 07:39:36;;;;;;;28.77;18.27;;;;;;;2.44;71.85;101927.16;1789165;79;22189;-75
2021/03/01 07:42:05;;;;;;;21.52;14.30;;;;;;;2.51;71.70;101929.72;1782081;80;20926;-77
2021/03/01 07:44:33;;;;;;;20.12;12.68;;;;;;;2.61;71.91;101924.48;1775586;80;21361;-75
2021/03/01 07:47:03;;;;;;;21.60;13.28;;;;;;;2.75;71.64;101927.42;1775472;80;20926;-75
2021/03/01 07:49:48;;;;;;;22.87;13.50;;;;;;;2.87;71.25;101923.03;1775522;80;20935;-76
2021/03/01 07:52:31;;;;;;;23.90;12.78;;;;;;;3.03;70.97;101935.88;1775538;80;21457;-75
2021/03/01 07:55:10;;;;;;;26.10;13.67;;;;;;;3.18;70.51;101940.05;1775119;79;20962;-75
2021/03/01 07:57:40;;;;;;;18.00;12.13;;;;;;;3.37;70.28;101943.38;1774876;80;21018;-75
2021/03/01 08:00:30;;;;;;;13.30;8.93;;;;;;;3.52;70.17;101945.83;1774951;80;20954;-72
2021/03/01 08:02:58;;;;;;;11.60;7.90;;;;;;;3.64;69.59;101952.63;1775118;80;21002;-72
2021/03/01 08:05:30;;;;;;;10.50;8.33;;;;;;;3.77;68.95;101954.67;1753312;80;22484;-73
2021/03/01 08:07:59;;;;;;;10.68;8.25;;;;;;;3.88;68.79;101958.01;1774842;80;20998;-71
2021/03/01 08:10:36;;;;;;;9.73;7.55;;;;;;;3.99;68.55;101963.09;1774927;80;21551;-71
2021/03/01 08:13:06;;;;;;;8.05;6.97;;;;;;;4.09;68.10;101957.78;1774839;80;20891;-72
2021/03/01 08:15:43;;;;;;;7.03;6.15;;;;;;;4.23;67.24;101957.61;1774967;80;20923;-74
2021/03/01 08:18:13;;;;;;;8.33;6.87;;;;;;;4.38;66.45;101958.28;1774998;80;21359;-73
2021/03/01 08:20:46;;;;;;;6.83;5.80;;;;;;;4.42;65.82;101966.02;1774959;80;20970;-71
2021/03/01 08:23:15;;;;;;;6.87;5.97;;;;;;;4.47;65.13;101962.94;1774594;80;21002;-72
2021/03/01 08:25:49;;;;;;;8.48;6.45;;;;;;;4.51;64.39;101970.23;1774945;80;20923;-72
2021/03/01 08:28:27;;;;;;;7.05;5.75;;;;;;;4.52;64.10;101974.12;1775840;80;20998;-71
2021/03/01 08:31:12;;;;;;;7.90;5.78;;;;;;;4.61;64.48;101975.74;1775634;80;21429;-75
2021/03/01 08:33:40;;;;;;;;;;;;;;;4.74;64.59;101981.64;1777514;79;21002;-72
2021/03/01 08:36:18;;;;;;;7.60;6.33;;;;;;;4.78;64.29;101982.87;1772338;80;20154;-72
2021/03/01 08:38:50;;;;;;;8.18;6.42;;;;;;;4.81;63.78;101983.27;1774869;80;21026;-73
2021/03/01 08:41:21;;;;;;;7.25;6.05;;;;;;;4.82;63.20;101983.67;1774924;80;21011;-71
2021/03/01 08:43:51;;;;;;;8.23;6.70;;;;;;;4.78;63.27;101983.32;1772015;80;21803;-70
2021/03/01 08:46:21;;;;;;;9.08;7.22;;;;;;;4.81;62.27;101991.06;1774919;80;21025;-72
2021/03/01 08:48:57;;;;;;;8.00;6.42;;;;;;;4.89;62.81;101989.22;1774901;80;20994;-71
2021/03/01 08:51:24;;;;;;;9.05;6.70;;;;;;;5.04;62.72;101988.57;1774883;80;20927;-72
2021/03/01 08:53:53;;;;;;;6.90;5.83;;;;;;;5.13;62.01;101993.18;1774923;80;20931;-72
2021/03/01 08:56:25;;;;;;;7.08;5.20;;;;;;;5.25;61.91;101991.30;1774967;80;22268;-71
2021/03/01 08:58:54;;;;;;;5.92;5.33;;;;;;;5.28;60.40;101994.69;1774857;79;20915;-71
2021/03/01 09:01:22;;;;;;;5.22;4.72;;;;;;;5.27;60.21;101998.61;1774864;80;20907;-71
2021/03/01 09:03:50;;;;;;;4.50;3.92;;;;;;;5.30;60.11;101999.44;1774872;79;21010;-72
2021/03/01 09:06:22;;;;;;;6.28;4.62;;;;;;;5.34;59.15;101996.35;1774723;80;21261;-72
2021/03/01 09:08:54;;;;;;;5.30;4.72;;;;;;;5.30;59.41;102005.08;1774908;79;21194;-71
2021/03/01 09:11:29;;;;;;;5.10;4.28;;;;;;;5.26;59.50;102006.86;1774791;80;21463;-71
2021/03/01 09:14:01;;;;;;;3.65;3.35;;;;;;;5.29;59.21;102006.83;1775019;80;21023;-71
2021/03/01 09:16:31;;;;;;;4.03;3.62;;;;;;;5.31;58.96;102002.44;1774906;80;21551;-71
2021/03/01 09:19:10;;;;;;;3.98;3.58;;;;;;;5.29;59.06;102005.53;1774943;80;20951;-72
2021/03/01 09:21:41;;;;;;;7.10;4.53;;;;;;;5.34;59.04;102010.20;1774746;80;21362;-72
2021/03/01 09:24:11;;;;;;;6.78;4.10;;;;;;;5.33;58.77;102007.17;1774850;80;21006;-72
2021/03/01 09:26:45;;;;;;;3.40;3.10;;;;;;;5.29;59.20;102001.62;1774969;80;21010;-72
2021/03/01 09:29:18;;;;;;;5.22;4.25;;;;;;;5.26;58.88;102005.56;1774980;79;21357;-71
2021/03/01 09:31:53;;;;;;;3.98;3.52;;;;;;;5.19;57.77;102003.49;1775054;80;21006;-70
2021/03/01 09:34:27;;;;;;;4.58;3.77;;;;;;;5.13;57.93;102007.48;1774861;80;21376;-70
2021/03/01 09:36:57;;;;;;;2.85;2.65;;;;;;;5.09;58.00;102011.45;1772644;80;22627;-68
2021/03/01 09:39:26;;;;;;;2.25;2.05;;;;;;;5.01;57.20;102010.72;1774965;80;21025;-69
2021/03/01 09:41:55;;;;;;;2.33;2.12;;;;;;;4.88;57.36;102014.78;1774688;80;21085;-68
2021/03/01 09:44:27;;;;;;;3.12;2.30;;;;;;;4.80;57.61;102018.36;1774901;80;20924;-69
2021/03/01 09:46:57;;;;;;;2.52;2.02;;;;;;;4.74;57.09;102016.72;1774916;80;21364;-69
2021/03/01 09:49:30;;;;;;;2.12;1.90;;;;;;;4.69;56.49;102015.91;1774884;80;21560;-70
2021/03/01 09:51:58;;;;;;;2.40;2.20;;;;;;;4.61;56.36;102021.66;1774922;80;21396;-70
2021/03/01 09:54:27;;;;;;;1.75;1.60;;;;;;;4.47;56.84;102017.91;1774846;79;21483;-69
2021/03/01 09:56:56;;;;;;;2.33;1.90;;;;;;;4.34;57.27;102016.77;1774840;79;21357;-69
2021/03/01 09:59:33;;;;;;;2.08;1.87;;;;;;;4.22;57.34;102013.44;1774877;79;21346;-68
2021/03/01 10:02:08;;;;;;;3.33;1.87;;;;;;;4.15;57.24;102023.03;1774738;79;21014;-69
2021/03/01 10:04:36;;;;;;;;;;;;;;;4.09;58.44;102029.17;1777459;80;20990;-70
2021/03/01 10:07:22;;;;;;;2.27;1.20;;;;;;;4.10;57.79;102027.42;1773723;80;20221;-69
2021/03/01 10:09:53;;;;;;;1.17;0.90;;;;;;;4.12;56.80;102030.42;1774826;79;20962;-68
2021/03/01 10:12:22;;;;;;;2.92;1.07;;;;;;;4.16;56.95;102036.45;1774741;79;21369;-71
2021/03/01 10:14:57;;;;;;;1.85;1.70;;;;;;;4.22;57.04;102038.11;1774833;80;21006;-73
2021/03/01 10:17:28;;;;;;;1.77;1.40;;;;;;;4.23;56.65;102035.95;1774960;80;21372;-72
2021/03/01 10:20:08;;;;;;;2.12;1.92;;;;;;;4.24;56.63;102030.72;1774804;80;20922;-73
2021/03/01 10:23:00;;;;;;;1.42;1.25;;;;;;;4.30;57.56;102035.85;1774810;80;20998;-72
2021/03/01 10:25:40;;;;;;;1.17;1.07;;;;;;;4.32;56.30;102035.40;1774826;79;21376;-70
2021/03/01 10:28:31;;;;;;;1.70;1.27;;;;;;;4.31;55.89;102032.81;1774741;79;21441;-71
2021/03/01 10:31:12;;;;;;;1.00;1.00;;;;;;;4.27;55.66;102030.70;1774806;80;21448;-71
2021/03/01 10:34:05;;;;;;;1.98;1.20;;;;;;;4.21;55.96;102027.31;1774642;80;21030;-71
2021/03/01 10:36:53;;;;;;;0.82;0.82;;;;;;;4.23;56.09;102026.86;1774838;80;21333;-72
2021/03/01 10:39:32;;;;;;;1.72;1.42;;;;;;;4.27;55.65;102022.91;1774845;80;21108;-71
2021/03/01 10:42:12;;;;;;;2.02;1.52;;;;;;;4.34;55.34;102023.26;1775438;80;21376;-71
2021/03/01 10:44:57;;;;;;;1.92;1.10;;;;;;;4.42;55.45;102029.65;1788528;80;20934;-72
2021/03/01 10:47:33;;;;;;;2.15;1.62;;;;;;;4.50;55.10;102035.62;1788626;80;20926;-71
2021/03/01 10:50:15;;;;;;;1.10;1.00;;;;;;;4.55;55.34;102040.77;1788695;80;21371;-71
2021/03/01 10:52:45;;;;;;;1.12;1.02;;;;;;;4.55;54.62;102032.52;1787904;80;22259;-71
2021/03/01 10:55:13;;;;;;;2.08;1.85;;;;;;;4.51;55.75;102037.36;1788645;80;20945;-71
2021/03/01 10:57:41;;;;;;;2.35;1.85;;;;;;;4.58;55.59;102040.75;1788793;80;21032;-70
2021/03/01 11:00:11;;;;;;;1.35;1.25;;;;;;;4.63;54.41;102041.53;1788597;80;21025;-72
2021/03/01 11:02:38;;;;;;;1.72;1.62;;;;;;;4.59;54.52;102043.75;1788595;79;20990;-71
2021/03/01 11:05:08;;;;;;;1.90;1.52;;;;;;;4.56;54.58;102042.50;1788640;80;21486;-73
2021/03/01 11:07:40;;;;;;;2.20;1.52;;;;;;;4.53;54.70;102041.22;1788551;80;21021;-72
2021/03/01 11:10:09;;;;;;;1.60;1.50;;;;;;;4.47;54.93;102034.38;1788504;80;20986;-72
2021/03/01 11:12:37;;;;;;;1.47;1.37;;;;;;;4.47;54.92;102042.58;1788543;80;21021;-73
2021/03/01 11:15:07;;;;;;;2.00;1.80;;;;;;;4.46;55.08;102049.52;1788633;79;20923;-73
2021/03/01 11:17:35;;;;;;;2.70;1.62;;;;;;;4.42;55.17;102053.47;1788637;79;21458;-72
2021/03/01 11:20:06;;;;;;;2.75;2.55;;;;;;;4.38;55.34;102056.56;1788556;80;20941;-71
2021/03/01 11:22:34;;;;;;;2.87;2.35;;;;;;;4.32;56.04;102054.02;1788536;80;20942;-73
2021/03/01 11:25:06;;;;;;;2.72;2.12;;;;;;;4.29;56.73;102047.55;1788566;80;21054;-73
2021/03/01 11:27:33;;;;;;;4.12;1.90;;;;;;;4.25;56.96;102054.53;1788891;79;20922;-72
2021/03/01 11:30:05;;;;;;;3.37;2.90;;;;;;;4.23;56.95;102056.72;1788735;80;21268;-73
2021/03/01 11:32:33;;;;;;;2.77;2.58;;;;;;;4.21;57.14;102057.17;1788241;80;20962;-72
2021/03/01 11:35:01;;;;;;;3.75;2.90;;;;;;;4.24;57.04;102059.28;1788698;80;20962;-69
2021/03/01 11:37:31;;;;;;;5.50;2.72;;;;;;;4.29;57.03;102054.92;1788489;80;21041;-73
2021/03/01 11:39:59;;;;;;;4.53;2.50;;;;;;;4.34;57.16;102058.32;1788756;80;20981;-73
2021/03/01 11:42:27;;;;;;;4.30;3.40;;;;;;;4.38;55.95;102055.27;1788622;80;21382;-76
2021/03/01 11:44:55;;;;;;;5.28;3.95;;;;;;;4.39;55.42;102054.81;1788642;80;20946;-74